Time;durP1;ratioP1;P1;durP2;ratioP2;P2;SDS_P1;SDS_P2;PMS_P1;PMS_P2;Temp;Humidity;BMP_temperature;BMP_pressure;BME280_temperature;BME280_humidity;BME280_pressure;Samples;Min_cycle;Max_cycle;Signal;HPM_P1;HPM_P2
2022/06/02 00:01:45;;;;;;;;;2.00;2.00;;;;;16.81;40.92;101221.34;5029259;28;45554;-74
2022/06/02 00:04:30;;;;;;;;;3.00;2.00;;;;;17.46;41.17;101328.59;5048386;28;45526;-74
2022/06/02 00:07:17;;;;;;;;;1.33;1.33;;;;;17.44;40.89;101333.31;5034028;28;45508;-73
2022/06/02 00:09:55;;;;;;;;;1.67;1.67;;;;;17.44;40.78;101336.00;5037223;28;46813;-74
2022/06/02 00:12:33;;;;;;;;;3.00;3.00;;;;;17.37;40.97;101332.31;5017823;28;46818;-73
2022/06/02 00:15:16;;;;;;;;;2.67;2.67;;;;;17.42;41.11;101338.00;5017354;28;45295;-73
2022/06/02 00:17:44;;;;;;;;;2.00;2.00;;;;;17.42;41.11;101343.38;5021546;28;45472;-73
2022/06/02 00:20:24;;;;;;;;;3.33;3.33;;;;;17.44;41.27;101352.13;5016044;28;48878;-73
2022/06/02 00:22:52;;;;;;;;;4.67;3.00;;;;;17.43;40.87;101345.09;5028687;28;45475;-72
2022/06/02 00:25:21;;;;;;;;;2.00;2.00;;;;;17.41;41.02;101347.06;5016107;28;45313;-70
2022/06/02 00:28:23;;;;;;;;;4.33;4.33;;;;;17.15;41.44;101310.56;5027383;28;45397;-73
2022/06/02 00:31:20;;;;;;;;;3.67;2.67;;;;;17.38;41.32;101342.06;5026197;28;48162;-73
2022/06/02 00:34:19;;;;;;;;;2.00;2.00;;;;;17.39;40.96;101358.00;5016603;28;45392;-73
2022/06/02 00:37:17;;;;;;;;;2.67;2.67;;;;;17.29;41.47;101358.22;5051331;28;45397;-73
2022/06/02 00:39:42;;;;;;;;;2.00;2.00;;;;;17.04;41.90;101324.38;5044487;28;45465;-74
2022/06/02 00:42:26;;;;;;;;;2.67;2.00;;;;;17.23;41.86;101352.72;5031881;28;48658;-73
2022/06/02 00:45:04;;;;;;;;;4.00;4.00;;;;;17.16;42.18;101355.22;5016929;28;45266;-72
2022/06/02 00:47:50;;;;;;;;;1.00;1.00;;;;;17.18;42.05;101363.94;5022036;28;45178;-74
2022/06/02 00:50:28;;;;;;;;;5.67;4.67;;;;;17.17;42.01;101364.97;5035282;28;45530;-75
2022/06/02 00:53:21;;;;;;;;;2.00;2.00;;;;;16.89;42.38;101318.03;5029909;28;48399;-74
2022/06/02 00:58:50;;;;;;;;;4.00;4.00;;;;;16.86;42.48;101319.22;5028421;28;45550;-74
2022/06/02 01:01:25;;;;;;;;;4.00;4.00;;;;;16.63;42.57;101281.47;5032231;28;45564;-72
2022/06/02 01:03:54;;;;;;;;;4.33;4.33;;;;;16.50;42.95;101278.47;5036188;28;45885;-73
2022/06/02 01:06:23;;;;;;;;;2.67;2.67;;;;;16.92;43.06;101350.75;5038857;28;45186;-74
2022/06/02 01:09:26;;;;;;;;;5.00;5.00;;;;;16.91;43.37;101348.25;5020977;28;45191;-71
2022/06/02 01:12:09;;;;;;;;;4.67;3.33;;;;;16.46;43.33;101290.53;5033413;28;45458;-73
2022/06/02 01:14:50;;;;;;;;;4.00;3.00;;;;;16.84;43.42;101344.56;5039287;28;45435;-76
2022/06/02 01:17:31;;;;;;;;;3.00;3.00;;;;;16.78;43.55;101346.06;5039254;28;45562;-72
2022/06/02 01:20:30;;;;;;;;;4.33;3.00;;;;;16.44;43.54;101287.19;5039250;28;45338;-73
2022/06/02 01:23:00;;;;;;;;;3.67;3.00;;;;;15.98;43.73;101217.09;5020672;28;45407;-73
2022/06/02 01:25:40;;;;;;;;;3.67;3.67;;;;;16.74;44.08;101350.09;5019254;28;45910;-72
2022/06/02 01:28:30;;;;;;;;;3.33;2.33;;;;;16.73;43.77;101353.81;5018487;28;47486;-72
2022/06/02 01:30:55;;;;;;;;;4.00;3.00;;;;;16.70;43.76;101354.97;5037363;28;45250;-74
2022/06/02 01:33:32;;;;;;;;;4.67;3.00;;;;;16.67;44.15;101347.28;5037939;28;45218;-76
2022/06/02 01:36:12;;;;;;;;;4.33;4.33;;;;;16.58;44.12;101356.28;5035827;28;45824;-72
2022/06/02 01:39:04;;;;;;;;;4.00;4.00;;;;;16.54;44.48;101364.84;5036973;28;45323;-72
2022/06/02 01:41:39;;;;;;;;;5.00;5.00;;;;;16.57;44.48;101343.88;5040041;28;45337;-71
2022/06/02 01:44:23;;;;;;;;;3.00;3.00;;;;;16.59;43.97;101357.13;5020863;28;45222;-72
2022/06/02 01:47:02;;;;;;;;;3.33;3.33;;;;;16.64;44.17;101344.91;5021555;28;45841;-75
2022/06/02 01:49:33;;;;;;;;;4.67;4.67;;;;;16.69;43.86;101347.94;5037015;28;46558;-72
2022/06/02 01:52:36;;;;;;;;;4.00;4.00;;;;;16.69;43.98;101361.34;5026470;28;45510;-73
2022/06/02 01:55:39;;;;;;;;;4.33;4.00;;;;;16.68;44.00;101361.53;5019077;28;45539;-74
2022/06/02 01:58:17;;;;;;;;;4.33;4.33;;;;;16.62;44.34;101363.03;5047950;28;47007;-72
2022/06/02 02:00:46;;;;;;;;;3.67;3.67;;;;;16.41;44.71;101355.44;5018712;28;45444;-72
2022/06/02 02:03:11;;;;;;;;;4.33;4.33;;;;;15.73;44.68;101243.06;5023228;28;45431;-73
2022/06/02 02:05:52;;;;;;;;;4.33;4.00;;;;;16.36;44.72;101343.53;5019040;28;45459;-70
2022/06/02 02:08:48;;;;;;;;;3.33;3.33;;;;;15.94;44.91;101281.97;5042898;28;45814;-72
2022/06/02 02:11:27;;;;;;;;;4.33;4.33;;;;;16.42;44.97;101351.78;5037795;28;45392;-74
2022/06/02 02:14:00;;;;;;;;;5.00;5.00;;;;;16.39;45.26;101353.94;5046325;28;45493;-72
2022/06/02 02:16:38;;;;;;;;;5.33;4.00;;;;;16.38;45.15;101355.78;5038983;28;45369;-73
2022/06/02 02:19:09;;;;;;;;;4.00;4.00;;;;;16.39;44.98;101353.94;5034743;28;48567;-72
2022/06/02 02:22:03;;;;;;;;;4.00;4.00;;;;;16.36;45.47;101354.25;5018650;28;45521;-75
2022/06/02 02:24:50;;;;;;;;;5.67;5.00;;;;;16.35;45.21;101349.91;5017553;28;45355;-75
2022/06/02 02:28:02;;;;;;;;;4.67;4.67;;;;;16.31;45.34;101343.19;5019077;28;45318;-71
2022/06/02 02:30:23;;;;;;;;;5.00;5.00;;;;;16.03;45.87;101319.38;5034553;28;45595;-72
2022/06/02 02:33:26;;;;;;;;;6.00;6.00;;;;;16.11;46.13;101343.50;5039503;28;45309;-73
2022/06/02 02:35:54;;;;;;;;;4.67;4.67;;;;;16.11;45.82;101348.88;5009075;28;45635;-73
2022/06/02 02:38:33;;;;;;;;;6.00;6.00;;;;;16.10;45.86;101349.88;5038767;28;45389;-73
2022/06/02 02:41:03;;;;;;;;;5.00;5.00;;;;;16.09;45.93;101340.16;5037891;28;46654;-72
2022/06/02 02:43:38;;;;;;;;;5.00;5.00;;;;;16.01;46.36;101336.59;5037207;28;45400;-70
2022/06/02 02:46:17;;;;;;;;;5.33;5.33;;;;;15.72;46.27;101305.72;5038237;28;45310;-73
2022/06/02 02:48:46;;;;;;;;;4.00;4.00;;;;;15.96;46.73;101355.88;5036618;28;46300;-74
2022/06/02 02:51:33;;;;;;;;;6.33;6.33;;;;;15.97;46.43;101356.72;5022814;28;45502;-74
2022/06/02 02:54:12;;;;;;;;;4.00;4.00;;;;;14.71;46.44;101156.69;5033459;28;46032;-70
2022/06/02 02:56:52;;;;;;;;;5.00;5.00;;;;;15.89;46.44;101336.09;5018436;28;45319;-72
2022/06/02 02:59:55;;;;;;;;;7.67;7.67;;;;;16.07;46.11;101358.28;5018056;28;45504;-73
2022/06/02 03:02:40;;;;;;;;;6.33;4.67;;;;;16.04;46.21;101357.75;5026219;28;46543;-72
2022/06/02 03:05:31;;;;;;;;;8.00;7.00;;;;;15.10;46.48;101208.72;5017813;28;45301;-73
2022/06/02 03:08:12;;;;;;;;;6.33;6.33;;;;;15.64;46.59;101307.56;5020671;28;45402;-74
2022/06/02 03:10:43;;;;;;;;;5.67;5.67;;;;;15.94;46.67;101362.41;5027298;28;45552;-73
2022/06/02 03:13:28;;;;;;;;;5.00;5.00;;;;;15.72;46.31;101315.59;5019578;28;45737;-72
2022/06/02 03:16:01;;;;;;;;;6.67;6.67;;;;;15.55;46.51;101287.03;5019296;28;45571;-72
2022/06/02 03:18:30;;;;;;;;;7.33;7.00;;;;;15.85;46.91;101336.59;5036397;28;45203;-72
2022/06/02 03:21:03;;;;;;;;;7.00;5.33;;;;;15.84;46.90;101335.75;5035812;28;45554;-71
2022/06/02 03:23:51;;;;;;;;;4.67;4.67;;;;;15.39;46.70;101277.94;5037480;28;46453;-74
2022/06/02 03:26:41;;;;;;;;;10.00;8.00;;;;;15.61;46.35;101308.69;5031191;28;45425;-73
2022/06/02 03:29:19;;;;;;;;;5.00;5.00;;;;;15.90;46.83;101355.72;5016076;28;45255;-72
2022/06/02 03:32:02;;;;;;;;;7.00;7.00;;;;;15.96;46.45;101361.25;5028058;28;45166;-74
2022/06/02 03:34:46;;;;;;;;;7.33;7.33;;;;;15.92;46.58;101367.94;5035874;28;48085;-72
2022/06/02 03:37:23;;;;;;;;;7.33;7.33;;;;;15.86;46.91;101370.44;5036457;28;45470;-73
2022/06/02 03:40:07;;;;;;;;;5.00;5.00;;;;;15.85;46.93;101358.88;5037499;28;45465;-72
2022/06/02 03:43:12;;;;;;;;;6.67;6.67;;;;;15.83;46.90;101358.22;5025580;28;45621;-74
2022/06/02 03:46:01;;;;;;;;;8.33;7.33;;;;;14.90;46.87;101215.31;5009203;28;45875;-73
2022/06/02 03:48:54;;;;;;;;;6.67;5.33;;;;;15.81;47.10;101363.72;5017388;28;45354;-73
2022/06/02 03:51:53;;;;;;;;;3.67;3.67;;;;;15.72;47.18;101366.53;5031989;28;45415;-72
2022/06/02 03:54:28;;;;;;;;;4.67;4.67;;;;;15.69;47.27;101359.66;5037000;28;45498;-72
2022/06/02 03:57:22;;;;;;;;;6.33;6.33;;;;;15.71;47.16;101367.53;5025823;28;45382;-71
2022/06/02 03:59:57;;;;;;;;;9.00;8.00;;;;;15.73;46.96;101361.03;5031517;28;46103;-72
2022/06/02 04:03:00;;;;;;;;;8.33;8.33;;;;;15.71;47.09;101351.47;5018589;28;45265;-74
2022/06/02 04:05:26;;;;;;;;;8.67;8.00;;;;;15.56;47.08;101334.28;5030389;28;45637;-73
2022/06/02 04:08:16;;;;;;;;;7.67;7.67;;;;;15.79;47.04;101370.25;5023914;28;46134;-75
2022/06/02 04:11:18;;;;;;;;;6.33;6.33;;;;;15.85;46.63;101358.88;5017428;28;45242;-73
2022/06/02 04:14:08;;;;;;;;;8.67;8.67;;;;;15.85;46.73;101364.25;5029933;28;45687;-73
2022/06/02 04:16:56;;;;;;;;;7.00;7.00;;;;;15.79;46.99;101360.34;5016167;28;45334;-72
2022/06/02 04:22:51;;;;;;;;;9.33;8.33;;;;;15.54;46.92;101339.81;5028665;28;45292;-71
2022/06/02 04:25:32;;;;;;;;;8.33;7.33;;;;;15.84;46.92;101386.72;5035728;28;45294;-72
2022/06/02 04:28:34;;;;;;;;;7.33;7.33;;;;;15.69;47.30;101369.56;5022676;28;45371;-73
2022/06/02 04:31:22;;;;;;;;;7.67;7.67;;;;;14.97;47.07;101253.00;5009373;28;46301;-72
2022/06/02 04:33:55;;;;;;;;;10.67;9.33;;;;;15.55;47.04;101351.38;5016685;28;45281;-72
2022/06/02 04:36:47;;;;;;;;;8.00;8.00;;;;;15.73;47.07;101392.34;5022571;28;45529;-72
2022/06/02 04:39:27;;;;;;;;;7.00;7.00;;;;;15.60;46.96;101362.47;5017933;28;45360;-74
2022/06/02 04:42:03;;;;;;;;;7.00;7.00;;;;;15.93;46.43;101398.28;5041059;28;47811;-73
2022/06/02 04:44:34;;;;;;;;;7.00;7.00;;;;;16.04;46.35;101398.84;5019831;28;45542;-73
2022/06/02 04:47:19;;;;;;;;;7.67;7.67;;;;;16.04;46.42;101390.78;5031509;28;45313;-71
2022/06/02 04:49:52;;;;;;;;;6.33;6.33;;;;;16.09;46.17;101391.13;5039378;28;45391;-71
2022/06/02 04:52:26;;;;;;;;;8.33;7.67;;;;;16.18;46.10;101389.28;5025440;28;45767;-72
2022/06/02 04:54:52;;;;;;;;;7.33;7.33;;;;;16.30;45.62;101389.81;5039910;28;45230;-73
2022/06/02 04:57:30;;;;;;;;;6.67;6.67;;;;;16.36;45.45;101383.78;5043873;28;45699;-71
2022/06/02 05:00:19;;;;;;;;;6.67;6.67;;;;;16.40;45.50;101379.75;5059352;28;45475;-74
2022/06/02 05:02:56;;;;;;;;;8.00;8.00;;;;;16.52;44.92;101393.69;5060141;28;46592;-73
2022/06/02 05:05:43;;;;;;;;;7.67;7.67;;;;;16.04;45.13;101342.50;5060869;28;45469;-75
2022/06/02 05:08:43;;;;;;;;;11.33;8.00;;;;;16.32;45.36;101358.28;5042215;28;45505;-73
2022/06/02 05:11:51;;;;;;;;;8.67;7.00;;;;;16.58;44.90;101388.50;5047330;28;45455;-71
2022/06/02 05:14:25;;;;;;;;;8.67;7.67;;;;;15.86;44.85;101247.94;5031610;28;48645;-73
2022/06/02 05:17:15;;;;;;;;;7.00;6.33;;;;;16.71;44.54;101388.88;5027486;28;45562;-72
2022/06/02 05:19:59;;;;;;;;;9.33;7.33;;;;;16.77;44.30;101386.50;5022431;28;46821;-73
2022/06/02 05:22:40;;;;;;;;;5.33;5.00;;;;;16.77;44.24;101387.34;5024030;28;45598;-74
2022/06/02 05:25:31;;;;;;;;;6.67;6.67;;;;;16.86;44.33;101380.16;5032593;28;46403;-73
2022/06/02 05:28:19;;;;;;;;;7.00;7.00;;;;;16.18;44.38;101243.59;5039292;28;45329;-74
2022/06/02 05:30:56;;;;;;;;;9.67;9.67;;;;;17.06;43.94;101386.00;5034531;28;45616;-72
2022/06/02 05:33:40;;;;;;;;;7.00;7.00;;;;;17.11;43.78;101392.53;5019480;28;45510;-71
2022/06/02 05:36:33;;;;;;;;;6.67;6.67;;;;;17.16;43.70;101382.09;5029853;28;46794;-70
2022/06/02 05:39:19;;;;;;;;;9.00;8.00;;;;;16.62;43.55;101277.13;5019039;28;45435;-70
2022/06/02 05:42:04;;;;;;;;;9.67;9.67;;;;;17.18;43.14;101373.88;5019101;28;45558;-73
2022/06/02 05:44:45;;;;;;;;;9.00;9.00;;;;;17.44;43.43;101371.78;5041772;28;46304;-73
2022/06/02 05:47:27;;;;;;;;;9.33;7.33;;;;;17.58;43.07;101379.09;5030203;28;47467;-73
2022/06/02 05:50:09;;;;;;;;;8.67;8.67;;;;;17.68;42.58;101387.00;5037241;28;45332;-72
2022/06/02 05:52:49;;;;;;;;;9.33;8.00;;;;;17.68;42.49;101387.00;5032887;28;45467;-72
2022/06/02 05:56:03;;;;;;;;;12.00;10.67;;;;;16.90;42.22;101255.25;5019545;28;45384;-73
2022/06/02 05:58:50;;;;;;;;;7.67;7.67;;;;;17.87;42.05;101381.22;5018789;28;47126;-72
2022/06/02 06:01:31;;;;;;;;;6.00;6.00;;;;;17.79;41.83;101386.59;5023311;28;45277;-75
2022/06/02 06:04:20;;;;;;;;;10.00;10.00;;;;;17.74;42.07;101391.69;5038644;28;45380;-73
2022/06/02 06:06:55;;;;;;;;;8.33;8.33;;;;;17.71;42.42;101375.06;5037158;28;45603;-73
2022/06/02 06:09:28;;;;;;;;;9.33;9.33;;;;;17.71;42.28;101377.75;5037621;28;46828;-71
2022/06/02 06:12:00;;;;;;;;;9.33;8.67;;;;;17.68;42.51;101381.63;5038027;28;45537;-73
2022/06/02 06:14:40;;;;;;;;;8.00;8.00;;;;;17.80;42.26;101390.13;5038449;28;45459;-71
2022/06/02 06:17:18;;;;;;;;;8.33;8.33;;;;;17.89;42.27;101395.31;5038815;28;45422;-74
2022/06/02 06:20:04;;;;;;;;;10.00;10.00;;;;;17.99;41.74;101378.09;5031830;28;46427;-76
2022/06/02 06:22:49;;;;;;;;;8.00;8.00;;;;;18.23;41.54;101388.75;5040707;28;45283;-79
2022/06/02 06:25:42;;;;;;;;;10.33;10.33;;;;;17.61;41.22;101257.75;5035669;28;45426;-76
2022/06/02 06:28:14;;;;;;;;;7.33;6.00;;;;;18.67;40.96;101355.78;5034828;28;45570;-74
2022/06/02 06:30:50;;;;;;;;;10.33;9.33;;;;;19.17;39.96;101383.91;5038460;28;45883;-73
2022/06/02 06:33:43;;;;;;;;;9.00;9.00;;;;;18.70;39.85;101261.16;5038579;28;45580;-74
2022/06/02 06:36:41;;;;;;;;;11.00;8.33;;;;;19.67;39.15;101383.22;5038503;28;45546;-74
2022/06/02 06:39:33;;;;;;;;;9.00;8.33;;;;;19.70;38.49;101372.88;5027230;28;45586;-73
2022/06/02 06:42:10;;;;;;;;;12.33;9.00;;;;;20.26;38.13;101378.50;5034602;28;48027;-74
2022/06/02 06:44:54;;;;;;;;;10.33;9.00;;;;;21.03;36.36;101358.00;5035496;28;45559;-74
2022/06/02 06:47:32;;;;;;;;;9.00;9.00;;;;;22.11;34.95;101384.38;5026673;28;45522;-73
2022/06/02 06:50:04;;;;;;;;;11.00;10.00;;;;;23.10;33.27;101384.47;5035078;28;45478;-77
2022/06/02 06:53:07;;;;;;;;;10.00;8.67;;;;;24.18;31.92;101384.72;5031368;28;47139;-76
2022/06/02 06:55:47;;;;;;;;;8.33;8.33;;;;;24.80;29.59;101355.84;5024612;28;45328;-77
2022/06/02 06:58:24;;;;;;;;;9.67;9.67;;;;;25.40;28.62;101386.06;5028915;28;45895;-80
2022/06/02 07:01:09;;;;;;;;;11.33;10.33;;;;;25.84;28.20;101378.69;5017483;28;45403;-74
2022/06/02 07:04:08;;;;;;;;;12.67;11.00;;;;;26.57;27.70;101383.91;5020766;28;45502;-78
2022/06/02 07:06:55;;;;;;;;;10.33;8.67;;;;;27.06;26.14;101379.97;5005366;28;45625;-78
2022/06/02 07:09:42;;;;;;;;;8.67;8.00;;;;;27.17;26.34;101394.66;5026432;28;45555;-74
2022/06/02 07:15:30;;;;;;;;;8.00;8.00;;;;;27.08;26.18;101386.03;5022274;28;45927;-73
2022/06/02 07:18:17;;;;;;;;;9.33;9.33;;;;;27.29;26.38;101384.56;5017715;28;45322;-74
2022/06/02 07:20:45;;;;;;;;;7.67;7.67;;;;;27.75;25.62;101391.03;5024905;28;45432;-76
2022/06/02 07:23:26;;;;;;;;;9.00;9.00;;;;;28.11;25.24;101390.66;5035355;28;45371;-73
2022/06/02 07:26:25;;;;;;;;;8.00;8.00;;;;;28.50;25.09;101393.59;5034062;28;46199;-70
2022/06/02 07:28:57;;;;;;;;;8.67;8.67;;;;;28.64;23.95;101383.16;5037669;28;45322;-70
2022/06/02 07:31:53;;;;;;;;;7.67;6.00;;;;;28.73;23.73;101377.00;5024583;28;45489;-70
2022/06/02 07:34:36;;;;;;;;;5.67;5.67;;;;;29.15;23.47;101379.31;5030351;28;45544;-76
2022/06/02 07:37:22;;;;;;;;;8.33;8.33;;;;;29.21;22.93;101333.66;5017445;28;46446;-71
2022/06/02 07:40:07;;;;;;;;;8.00;8.00;;;;;28.94;23.26;101311.66;5016226;28;45712;-71
2022/06/02 07:42:36;;;;;;;;;14.00;11.33;;;;;29.14;22.62;101363.16;5047256;28;45390;-74
2022/06/02 07:45:46;;;;;;;;;7.67;7.67;;;;;28.77;23.32;101276.09;5022305;28;45491;-73
2022/06/02 07:48:27;;;;;;;;;6.67;6.67;;;;;29.67;22.01;101389.91;5003511;28;46697;-75
2022/06/02 07:51:02;;;;;;;;;9.33;8.67;;;;;29.36;22.65;101334.69;5030745;28;45182;-72
2022/06/02 07:54:09;;;;;;;;;6.67;6.67;;;;;30.09;22.02;101373.69;5016387;28;45371;-72
2022/06/02 07:56:54;;;;;;;;;6.67;5.33;;;;;30.63;21.52;101389.28;5013398;28;46110;-75
2022/06/02 07:59:53;;;;;;;;;5.00;3.33;;;;;29.21;21.81;101285.19;5032438;28;47695;-81
2022/06/02 08:02:50;;;;;;;;;5.67;5.67;;;;;29.63;22.25;101383.25;5021116;28;45519;-76
2022/06/02 08:05:55;;;;;;;;;6.00;6.00;;;;;29.86;21.89;101380.28;5033445;28;45553;-75
2022/06/02 08:08:40;;;;;;;;;5.00;5.00;;;;;30.13;22.26;101383.06;5035423;28;45489;-76
2022/06/02 08:11:34;;;;;;;;;4.67;4.67;;;;;29.42;22.07;101241.59;5032751;28;46916;-75
2022/06/02 08:14:19;;;;;;;;;4.67;4.67;;;;;29.53;21.80;101348.38;5037179;28;45997;-75
2022/06/02 08:17:13;;;;;;;;;4.67;4.00;;;;;29.45;21.71;101357.03;5033175;28;45197;-76
2022/06/02 08:19:51;;;;;;;;;6.00;4.00;;;;;29.68;22.28;101361.44;5039328;28;45488;-74
2022/06/02 08:22:38;;;;;;;;;4.00;4.00;;;;;29.61;21.78;101360.78;5022002;28;46144;-73
2022/06/02 08:25:26;;;;;;;;;5.00;4.33;;;;;29.37;22.54;101355.53;5039694;28;45447;-74
2022/06/02 08:28:10;;;;;;;;;2.00;2.00;;;;;29.18;22.30;101356.91;5034091;28;45393;-74
2022/06/02 08:31:03;;;;;;;;;4.67;4.00;;;;;29.28;22.93;101362.53;5020917;28;45654;-74
2022/06/02 08:33:48;;;;;;;;;5.67;5.67;;;;;29.22;22.36;101349.84;5036387;28;45388;-74
2022/06/02 08:36:24;;;;;;;;;4.67;4.33;;;;;29.47;22.34;101337.59;5052316;28;45384;-75
2022/06/02 08:39:09;;;;;;;;;4.33;4.33;;;;;29.17;22.08;101344.28;5020420;28;45229;-78
2022/06/02 08:41:34;;;;;;;;;4.67;4.67;;;;;28.68;23.01;101319.47;5021740;28;45615;-75
2022/06/02 08:44:24;;;;;;;;;6.00;5.33;;;;;28.27;23.44;101344.50;5057766;28;48239;-74
2022/06/02 08:46:50;;;;;;;;;4.00;4.00;;;;;27.97;23.71;101334.63;5056471;28;45687;-77
2022/06/02 08:49:50;;;;;;;;;6.00;6.00;;;;;27.22;24.08;101245.44;5028093;28;45372;-75
2022/06/02 08:52:37;;;;;;;;;4.67;4.67;;;;;27.66;24.21;101338.69;5031553;28;45510;-77
2022/06/02 08:55:16;;;;;;;;;6.00;4.00;;;;;26.28;24.96;101186.59;5032118;28;45655;-77
2022/06/02 08:58:10;;;;;;;;;5.67;5.67;;;;;27.03;24.78;101336.78;5027163;28;45554;-77
2022/06/02 09:01:02;;;;;;;;;4.67;4.67;;;;;26.73;25.14;101328.66;5048746;28;45402;-80
2022/06/02 09:03:55;;;;;;;;;5.33;5.00;;;;;26.85;25.41;101328.69;5030385;28;45478;-78
2022/06/02 09:06:32;;;;;;;;;5.33;5.33;;;;;25.92;25.67;101213.00;5036354;28;46884;-75
2022/06/02 09:09:19;;;;;;;;;5.00;5.00;;;;;26.45;26.13;101337.56;5019507;28;45486;-77
2022/06/02 09:11:47;;;;;;;;;7.00;7.00;;;;;26.03;26.66;101333.97;5030599;28;45511;-74
2022/06/02 09:14:42;;;;;;;;;6.33;4.67;;;;;25.79;27.75;101316.69;5029268;28;45399;-74
2022/06/02 09:17:07;;;;;;;;;6.00;5.00;;;;;26.84;26.52;101329.75;5007881;28;47465;-74
2022/06/02 09:20:20;;;;;;;;;7.00;5.67;;;;;27.90;24.10;101328.50;5023300;28;45585;-76
2022/06/02 09:23:02;;;;;;;;;7.67;6.33;;;;;28.65;24.01;101333.66;4954192;28;45469;-77
2022/06/02 09:26:02;;;;;;;;;4.00;4.00;;;;;28.90;23.52;101332.41;5026348;28;45714;-74
2022/06/02 09:28:56;;;;;;;;;4.00;4.00;;;;;29.62;22.91;101329.53;5019997;28;45869;-73
2022/06/02 09:31:40;;;;;;;;;4.33;4.33;;;;;30.09;21.79;101326.25;5024963;28;45542;-76
2022/06/02 09:34:40;;;;;;;;;3.67;3.67;;;;;30.36;20.77;101335.28;5039480;28;45468;-73
2022/06/02 09:37:31;;;;;;;;;5.00;4.00;;;;;30.54;20.61;101325.81;5035068;28;45666;-75
2022/06/02 09:40:34;;;;;;;;;5.67;4.67;;;;;30.93;20.71;101331.88;5025339;28;46400;-76
2022/06/02 09:43:39;;;;;;;;;3.67;3.67;;;;;30.82;19.89;101319.16;5050606;28;46421;-77
2022/06/02 09:46:16;;;;;;;;;4.00;4.00;;;;;30.65;20.42;101337.75;5020518;28;45603;-72
2022/06/02 09:49:14;;;;;;;;;6.33;6.00;;;;;30.61;20.40;101314.59;5020267;28;45445;-76
2022/06/02 09:52:03;;;;;;;;;5.00;5.00;;;;;30.13;20.83;101248.69;5001618;28;46065;-73
2022/06/02 09:55:11;;;;;;;;;4.33;4.33;;;;;30.89;19.47;101336.25;5029944;28;45591;-74
2022/06/02 09:58:41;;;;;;;;;4.33;3.00;;;;;30.59;19.89;101315.69;5017335;28;45287;-73
2022/06/02 10:01:36;;;;;;;;;4.00;4.00;;;;;30.13;20.73;101325.47;5019540;28;45545;-75
2022/06/02 10:04:27;;;;;;;;;1.00;1.00;;;;;29.43;21.35;101329.00;5019133;28;46478;-75
2022/06/02 10:07:13;;;;;;;;;4.67;4.67;;;;;29.05;22.55;101332.66;5045034;28;45384;-75
2022/06/02 10:09:57;;;;;;;;;5.00;5.00;;;;;28.68;22.64;101327.69;5027765;28;45332;-76
2022/06/02 10:13:00;;;;;;;;;4.33;4.33;;;;;28.33;23.32;101330.66;5039332;28;45443;-75
2022/06/02 10:15:44;;;;;;;;;6.00;6.00;;;;;27.82;23.93;101326.97;5037677;28;45397;-73
2022/06/02 10:18:34;;;;;;;;;4.00;4.00;;;;;26.58;24.60;101202.84;5032607;28;45442;-73
2022/06/02 10:21:24;;;;;;;;;4.33;4.33;;;;;26.65;24.73;101299.88;5023232;28;45525;-71
2022/06/02 10:24:11;;;;;;;;;3.33;3.33;;;;;26.45;25.29;101310.28;5034198;28;45361;-76
2022/06/02 10:27:01;;;;;;;;;6.33;5.00;;;;;26.09;25.46;101308.50;5019900;28;47017;-74
2022/06/02 10:29:57;;;;;;;;;5.00;5.00;;;;;25.78;25.92;101307.69;5020414;28;45252;-75
2022/06/02 10:32:25;;;;;;;;;2.33;2.33;;;;;25.36;26.62;101306.75;5019681;28;45363;-74
2022/06/02 10:35:37;;;;;;;;;5.67;5.67;;;;;24.86;27.29;101295.16;5018693;28;45263;-74
2022/06/02 10:38:24;;;;;;;;;7.33;5.00;;;;;24.67;27.94;101301.63;5021478;28;46163;-72
2022/06/02 10:41:31;;;;;;;;;6.00;6.00;;;;;24.15;28.96;101293.63;5019733;28;45508;-75
2022/06/02 10:44:06;;;;;;;;;9.33;7.67;;;;;24.20;28.50;101311.97;5019631;28;45344;-75
2022/06/02 10:47:02;;;;;;;;;5.33;5.33;;;;;23.80;28.83;101263.34;5019478;28;45506;-76
2022/06/02 10:49:33;;;;;;;;;4.00;4.00;;;;;24.02;28.64;101309.19;5017696;28;45478;-72
2022/06/02 10:52:40;;;;;;;;;5.00;4.00;;;;;23.87;28.66;101306.78;5036766;28;45333;-73
2022/06/02 10:55:37;;;;;;;;;4.00;4.00;;;;;23.73;28.98;101314.16;5038940;28;45237;-74
2022/06/02 10:58:25;;;;;;;;;7.00;6.00;;;;;23.62;29.71;101299.38;5055046;28;45594;-74
2022/06/02 11:01:16;;;;;;;;;5.00;5.00;;;;;23.43;29.72;101250.63;5040393;28;47803;-77
2022/06/02 11:04:00;;;;;;;;;3.67;3.67;;;;;23.82;29.43;101293.00;5039211;28;45467;-71
2022/06/02 11:06:47;;;;;;;;;5.33;5.33;;;;;24.01;29.44;101289.31;5037537;28;45350;-76
2022/06/02 11:09:42;;;;;;;;;4.00;4.00;;;;;23.57;29.24;101187.06;5039062;28;45532;-75
2022/06/02 11:12:55;;;;;;;;;6.00;4.00;;;;;24.24;29.32;101276.03;5038812;28;46529;-75
2022/06/02 11:15:32;;;;;;;;;6.00;5.00;;;;;24.39;28.63;101269.44;4993236;28;45807;-76
2022/06/02 11:18:13;;;;;;;;;4.00;4.00;;;;;24.41;29.40;101276.31;5037336;28;45524;-74
2022/06/02 11:21:06;;;;;;;;;3.00;3.00;;;;;24.50;28.37;101263.28;5035127;28;45423;-77
2022/06/02 11:23:45;;;;;;;;;6.00;6.00;;;;;24.56;28.62;101276.81;5038593;28;46907;-75
2022/06/02 11:26:29;;;;;;;;;5.00;5.00;;;;;24.44;28.76;101265.00;5038680;28;45494;-75
2022/06/02 11:29:16;;;;;;;;;7.00;5.00;;;;;24.36;29.16;101256.28;5039061;28;45550;-74
2022/06/02 11:32:08;;;;;;;;;7.00;5.00;;;;;24.27;28.78;101253.84;5038539;28;45483;-74
2022/06/02 11:34:56;;;;;;;;;5.00;5.00;;;;;24.07;28.92;101258.59;5038219;28;45434;-75
2022/06/02 11:37:53;;;;;;;;;4.67;4.67;;;;;24.05;28.63;101254.44;5037727;28;45476;-74
2022/06/02 11:40:33;;;;;;;;;6.00;4.67;;;;;23.51;28.78;101177.06;5038012;28;45349;-73
2022/06/02 11:43:15;;;;;;;;;5.00;5.00;;;;;24.07;28.76;101252.34;5040742;28;45288;-73
2022/06/02 11:46:01;;;;;;;;;4.00;4.00;;;;;24.05;28.51;101247.13;5036935;28;46409;-75
2022/06/02 11:48:55;;;;;;;;;4.00;4.00;;;;;23.27;29.01;101136.09;5037555;28;45465;-74
2022/06/02 11:51:32;;;;;;;;;4.00;4.00;;;;;24.26;28.29;101245.91;5023251;28;45439;-74
2022/06/02 11:54:07;;;;;;;;;3.33;3.33;;;;;24.33;28.85;101245.88;5018437;28;45615;-73
2022/06/02 11:56:41;;;;;;;;;3.00;3.00;;;;;24.42;27.89;101250.78;5018534;28;49093;-74
2022/06/02 11:59:42;;;;;;;;;5.00;5.00;;;;;24.47;27.59;101233.84;5020810;28;45385;-74
2022/06/02 12:02:13;;;;;;;;;4.33;4.33;;;;;24.55;27.91;101241.69;5018080;28;45359;-73
2022/06/02 12:04:51;;;;;;;;;4.00;4.00;;;;;24.57;28.18;101229.53;5019110;28;45541;-72
2022/06/02 12:07:41;;;;;;;;;6.00;5.67;;;;;24.49;27.90;101202.66;5018686;28;45905;-73
2022/06/02 12:10:15;;;;;;;;;3.00;3.00;;;;;24.73;28.06;101236.28;5016860;28;46356;-75
2022/06/02 12:12:59;;;;;;;;;3.00;3.00;;;;;24.56;28.04;101197.97;5017901;28;45248;-72
2022/06/02 12:15:39;;;;;;;;;7.00;5.33;;;;;24.77;27.84;101223.06;5025917;28;45372;-76
2022/06/02 12:19:04;;;;;;;;;4.67;4.67;;;;;24.60;27.50;101220.09;5023214;28;45423;-75
2022/06/02 12:21:59;;;;;;;;;4.00;4.00;;;;;24.50;27.32;101193.44;4951074;28;45304;-73
2022/06/02 12:24:40;;;;;;;;;4.00;4.00;;;;;24.59;27.91;101218.44;4948108;28;45605;-74
2022/06/02 12:27:35;;;;;;;;;4.67;4.67;;;;;24.53;27.81;101198.41;5012395;28;45300;-74
2022/06/02 12:30:05;;;;;;;;;5.67;4.00;;;;;22.54;28.45;100863.75;5018275;28;45390;-76
2022/06/02 12:32:57;;;;;;;;;5.00;5.00;;;;;24.71;28.07;101199.50;5020130;28;45499;-74
2022/06/02 12:35:40;;;;;;;;;2.00;2.00;;;;;24.69;27.45;101186.13;5017709;28;45474;-75
2022/06/02 12:38:11;;;;;;;;;5.67;3.33;;;;;24.72;27.30;101195.72;5034221;28;45786;-77
2022/06/02 12:40:42;;;;;;;;;3.67;3.67;;;;;24.54;27.36;101175.63;5018090;28;45817;-74
2022/06/02 12:43:44;;;;;;;;;4.00;3.00;;;;;24.55;27.45;101171.84;5018164;28;45395;-72
2022/06/02 12:46:16;;;;;;;;;3.00;3.00;;;;;24.58;27.52;101179.53;5017883;28;45230;-75
2022/06/02 12:49:06;;;;;;;;;6.00;4.67;;;;;24.64;28.05;101179.72;5017203;28;45318;-75
2022/06/02 12:52:09;;;;;;;;;4.33;4.33;;;;;24.69;27.31;101168.97;5030262;28;48444;-73
2022/06/02 12:54:50;;;;;;;;;5.00;3.00;;;;;24.52;27.57;101177.72;5038407;28;45272;-75
2022/06/02 12:57:54;;;;;;;;;4.00;4.00;;;;;24.42;27.86;101169.25;5037438;28;45513;-74